Главная страница
METAR-TAF:

METAR-TAF

Аэропорты :

Берген, Норвегия

широта: 60-17N, долгота: 005-14E, высота над уровнем моря: 5 м

Текущие метеонаблюдения

Эта сводка был подготовлена 58 минут назад, в 21:50 UTC
Ветер 3 Узел от северный
Температура 10°C
Влажность 93%
Давление 1011 hPa
Видимость: 8000 м
небольшая облачность на высоте 200 фута
Рассеянная облачность на высоте 4800 фута

METAR: ENBR 252150Z 01003KT 8000 FEW002 BKN048 10/09 Q1011 RMK WIND 1200FT 11011KT

Время: 00:48 (22:48 UTC)

Прогноз

Прогноз действительный с 25-го 18 UTC до 26-го 18 UTC
Ветер 7 Узел переменных направлений
Видимость 10 км и более
небольшая облачность на высоте 2000 фута
Рассеянная облачность на высоте 5000 фута

TAF: ENBR 2518/2618 VRB07KT 9999 FEW020 BKN050

Метеонаблюдения и прогнозы для более 4000 аэропортов (сводки METAR и TAF).

Имеющиеся станции представлены на карте желтыми и красными точками.

Чтобы увидеть название станции, наведите на нее мышь.

Затем щелкните, чтобы увидеть метеонаблюдения и метеопрогнозы.

Управление картой: чтобы увеличить масштаб, щелкните зеленые кнопки с черным крестиком; чтобы уменьшить масштаб, щелкните зеленую кнопку с тире; для просмотра соседних карт щелкайте зеленые стрелки.


METAR-TAF: